createdAt,value
2023-03-08T00:01:23.769Z,11.13
2023-03-08T00:04:26.114Z,10.57
2023-03-08T00:07:28.298Z,12.48
2023-03-08T00:10:30.511Z,12.85
2023-03-08T00:13:32.942Z,10.02
2023-03-08T00:16:35.660Z,11.95
2023-03-08T00:19:37.957Z,12.57
2023-03-08T00:22:41.639Z,12.45
2023-03-08T00:25:43.990Z,11.25
2023-03-08T00:28:47.354Z,12.65
2023-03-08T00:31:50.084Z,11.82
2023-03-08T00:34:54.535Z,13.02
2023-03-08T00:37:56.727Z,11.15
2023-03-08T00:40:59.212Z,11.93
2023-03-08T00:44:01.502Z,12.45
2023-03-08T00:47:03.781Z,12.13
2023-03-08T00:50:06.712Z,11.98
2023-03-08T00:53:09.048Z,10.85
2023-03-08T00:56:11.847Z,13.25
2023-03-08T00:59:14.082Z,12.00
2023-03-08T01:02:16.335Z,14.55
2023-03-08T01:05:18.446Z,13.68
2023-03-08T01:08:23.110Z,14.07
2023-03-08T01:11:27.085Z,14.10
2023-03-08T01:14:30.538Z,12.25
2023-03-08T01:17:32.976Z,12.13
2023-03-08T01:20:35.284Z,15.38
2023-03-08T01:23:38.596Z,11.50
2023-03-08T01:26:41.855Z,12.65
2023-03-08T01:29:44.718Z,12.27
2023-03-08T01:32:46.902Z,16.42
2023-03-08T01:35:49.246Z,12.68
2023-03-08T01:38:51.951Z,12.00
2023-03-08T01:41:54.296Z,18.05
2023-03-08T01:45:03.518Z,13.40
2023-03-08T01:48:07.535Z,12.48
2023-03-08T01:51:37.639Z,13.02
2023-03-08T01:54:47.273Z,13.77
2023-03-08T01:57:54.542Z,13.00
2023-03-08T02:00:57.168Z,14.60
2023-03-08T02:03:59.599Z,11.68
2023-03-08T02:07:02.904Z,11.82
2023-03-08T02:10:06.151Z,10.32
2023-03-08T02:13:09.243Z,11.30
2023-03-08T02:16:16.616Z,10.43
2023-03-08T02:19:29.394Z,10.82
2023-03-08T02:22:31.805Z,10.65
2023-03-08T02:25:34.054Z,11.90
2023-03-08T02:28:36.537Z,10.85
2023-03-08T02:31:38.711Z,11.43
2023-03-08T02:34:40.804Z,14.30
2023-03-08T02:37:42.920Z,11.82
2023-03-08T02:40:46.050Z,10.25
2023-03-08T02:43:48.195Z,15.18
2023-03-08T02:46:50.956Z,11.20
2023-03-08T02:49:53.169Z,10.73
2023-03-08T02:52:55.506Z,11.73
2023-03-08T02:55:57.800Z,10.65
2023-03-08T02:59:00.094Z,10.27
2023-03-08T03:02:02.613Z,10.57
2023-03-08T03:05:06.608Z,8.98
2023-03-08T03:08:09.538Z,10.35
2023-03-08T03:11:16.776Z,9.95
2023-03-08T03:14:19.376Z,9.43
2023-03-08T03:17:21.598Z,11.07
2023-03-08T03:20:24.041Z,9.30
2023-03-08T03:23:26.233Z,8.48
2023-03-08T03:26:29.217Z,13.35
2023-03-08T03:29:32.520Z,9.77
2023-03-08T03:32:44.601Z,12.43
2023-03-08T03:35:48.280Z,10.98
2023-03-08T03:38:51.275Z,9.63
2023-03-08T03:41:54.132Z,13.35
2023-03-08T03:44:56.455Z,9.45
2023-03-08T03:47:59.477Z,9.02
2023-03-08T03:51:06.252Z,12.65
2023-03-08T03:54:09.287Z,12.52
2023-03-08T03:57:13.525Z,11.10
2023-03-08T04:00:17.986Z,12.02
2023-03-08T04:06:32.575Z,9.82
2023-03-08T04:09:36.378Z,10.75
2023-03-08T04:12:44.356Z,10.40
2023-03-08T04:15:46.709Z,10.38
2023-03-08T04:18:52.731Z,12.25
2023-03-08T04:21:55.138Z,11.38
2023-03-08T04:25:00.173Z,9.40
2023-03-08T04:28:11.641Z,11.25
2023-03-08T04:31:22.665Z,12.75
2023-03-08T04:34:25.947Z,10.82
2023-03-08T04:37:29.242Z,11.20
2023-03-08T04:40:57.092Z,13.55
2023-03-08T04:43:59.828Z,10.05
2023-03-08T04:47:10.567Z,11.10
2023-03-08T04:50:18.872Z,11.98
2023-03-08T04:53:22.324Z,13.57
2023-03-08T04:56:24.687Z,10.73
2023-03-08T04:59:27.454Z,11.77
2023-03-08T05:02:33.590Z,13.25
2023-03-08T05:05:37.882Z,11.30
2023-03-08T05:08:40.555Z,12.70
2023-03-08T05:11:42.803Z,13.55
2023-03-08T05:14:45.886Z,12.70
2023-03-08T05:17:48.205Z,11.50
2023-03-08T05:21:02.405Z,14.35
2023-03-08T05:24:06.376Z,14.57
2023-03-08T05:27:11.390Z,14.45
2023-03-08T05:30:14.131Z,12.93
2023-03-08T05:33:17.917Z,15.00
2023-03-08T05:36:20.803Z,15.88
2023-03-08T05:39:26.275Z,14.05
2023-03-08T05:42:35.310Z,15.18
2023-03-08T05:45:38.173Z,13.57
2023-03-08T05:48:41.148Z,16.95
2023-03-08T05:51:43.664Z,15.48
2023-03-08T05:54:46.668Z,15.43
2023-03-08T05:57:53.392Z,13.55
2023-03-08T06:00:56.705Z,15.48
2023-03-08T06:03:59.132Z,19.15
2023-03-08T06:07:05.328Z,15.77
2023-03-08T06:10:16.573Z,14.63
2023-03-08T06:13:18.757Z,14.85
2023-03-08T06:16:21.490Z,12.85
2023-03-08T06:19:24.156Z,15.02
2023-03-08T06:22:28.933Z,14.55
2023-03-08T06:25:31.299Z,16.58
2023-03-08T06:28:34.899Z,16.58
2023-03-08T06:31:37.936Z,15.05
2023-03-08T06:34:42.303Z,16.17
2023-03-08T06:37:46.088Z,17.48
2023-03-08T06:40:48.340Z,16.08
2023-03-08T06:43:50.519Z,16.92
2023-03-08T06:46:52.744Z,18.15
2023-03-08T06:49:56.474Z,13.88
2023-03-08T06:52:58.818Z,18.63
2023-03-08T06:56:19.031Z,13.88
2023-03-08T06:59:21.230Z,18.95
2023-03-08T07:02:23.575Z,18.90
2023-03-08T07:05:26.203Z,13.38
2023-03-08T07:08:28.717Z,18.17
2023-03-08T07:11:32.367Z,16.65
2023-03-08T07:14:34.583Z,15.32
2023-03-08T07:17:37.315Z,18.15
2023-03-08T07:20:39.540Z,17.25
2023-03-08T07:23:41.711Z,11.82
2023-03-08T07:26:43.873Z,15.80
2023-03-08T07:29:45.990Z,15.63
2023-03-08T07:32:48.301Z,15.10
2023-03-08T07:35:50.733Z,17.48
2023-03-08T07:38:52.859Z,16.17
2023-03-08T07:41:55.300Z,15.88
2023-03-08T07:44:57.466Z,19.98
2023-03-08T07:47:59.653Z,17.20
2023-03-08T07:51:08.970Z,18.52
2023-03-08T07:54:13.058Z,16.05
2023-03-08T07:57:16.085Z,18.30
2023-03-08T08:00:18.922Z,16.02
2023-03-08T08:03:21.294Z,19.50
2023-03-08T08:06:23.396Z,20.13
2023-03-08T08:09:25.808Z,15.57
2023-03-08T08:12:28.278Z,14.18
2023-03-08T08:15:31.109Z,16.58
2023-03-08T08:18:34.335Z,17.23
2023-03-08T08:21:36.571Z,15.63
2023-03-08T08:24:39.098Z,16.42
2023-03-08T08:27:41.482Z,17.50
2023-03-08T08:30:43.650Z,17.83
2023-03-08T08:33:45.838Z,20.75
2023-03-08T08:36:48.307Z,16.80
2023-03-08T08:39:50.575Z,16.27
2023-03-08T08:42:52.761Z,20.45
2023-03-08T08:45:57.658Z,16.73
2023-03-08T08:49:00.258Z,18.95
2023-03-08T08:52:02.483Z,18.08
2023-03-08T08:55:04.912Z,14.93
2023-03-08T08:58:07.286Z,17.05
2023-03-08T09:01:18.864Z,18.83
2023-03-08T09:04:21.120Z,18.88
2023-03-08T09:07:23.442Z,15.50
2023-03-08T09:10:29.431Z,17.10
2023-03-08T09:13:31.980Z,18.23
2023-03-08T09:16:34.943Z,19.15
2023-03-08T09:19:37.663Z,17.65
2023-03-08T09:22:40.635Z,16.55
2023-03-08T09:25:42.830Z,20.13
2023-03-08T09:28:45.495Z,17.17
2023-03-08T09:31:48.033Z,17.17
2023-03-08T09:34:51.447Z,17.35
2023-03-08T09:37:55.572Z,18.13
2023-03-08T09:41:03.385Z,17.05
2023-03-08T09:44:46.441Z,18.05
2023-03-08T09:48:05.170Z,15.43
2023-03-08T09:51:11.820Z,17.50
2023-03-08T09:54:20.361Z,15.82
2023-03-08T09:57:52.654Z,17.90
2023-03-08T10:01:01.719Z,19.85
2023-03-08T10:04:16.053Z,15.63
2023-03-08T10:07:28.910Z,17.70
2023-03-08T10:10:34.280Z,17.67
2023-03-08T10:13:56.157Z,16.83
2023-03-08T10:17:05.621Z,16.70
2023-03-08T10:20:22.790Z,18.20
2023-03-08T10:23:26.526Z,22.17
2023-03-08T10:26:29.070Z,18.30
2023-03-08T10:29:31.195Z,20.45
2023-03-08T10:32:45.626Z,20.63
2023-03-08T10:35:55.976Z,17.25
2023-03-08T10:38:59.683Z,19.85
2023-03-08T10:42:07.262Z,24.60
2023-03-08T10:45:22.275Z,21.70
2023-03-08T10:48:24.419Z,18.52
2023-03-08T10:51:29.008Z,18.17
2023-03-08T10:54:31.270Z,15.50
2023-03-08T10:57:34.004Z,23.00
2023-03-08T11:00:44.431Z,19.50
2023-03-08T11:03:47.145Z,20.35
2023-03-08T11:06:49.585Z,20.08
2023-03-08T11:09:52.570Z,17.58
2023-03-08T11:13:16.313Z,18.20
2023-03-08T11:16:27.594Z,20.75
2023-03-08T11:20:00.278Z,20.42
2023-03-08T11:23:30.763Z,21.40
2023-03-08T11:26:48.070Z,19.65
2023-03-08T11:30:02.506Z,21.40
2023-03-08T11:33:26.064Z,22.77
2023-03-08T11:36:35.691Z,20.63
2023-03-08T11:40:06.883Z,21.05
2023-03-08T11:43:38.855Z,22.30
2023-03-08T11:47:12.131Z,22.30
2023-03-08T11:50:24.728Z,18.98
2023-03-08T11:53:30.334Z,20.00
2023-03-08T11:56:51.085Z,16.17
2023-03-08T11:59:58.007Z,20.40
2023-03-08T12:03:23.615Z,22.50
2023-03-08T12:06:32.356Z,21.50
2023-03-08T12:13:15.490Z,14.73
2023-03-08T12:19:43.152Z,15.88
2023-03-08T12:22:57.327Z,18.60
2023-03-08T12:26:23.881Z,18.60
2023-03-08T12:29:34.594Z,20.00
2023-03-08T12:32:41.719Z,18.13
2023-03-08T12:36:02.321Z,16.42
2023-03-08T12:39:28.896Z,17.38
2023-03-08T12:42:38.841Z,18.25
2023-03-08T12:45:43.750Z,17.13
2023-03-08T12:48:45.992Z,14.88
2023-03-08T12:51:58.196Z,18.73
2023-03-08T12:55:06.102Z,19.67
2023-03-08T12:58:17.868Z,17.98
2023-03-08T13:01:40.650Z,17.95
2023-03-08T13:04:43.146Z,18.33
2023-03-08T13:08:06.712Z,15.10
2023-03-08T13:11:16.933Z,14.50
2023-03-08T13:17:48.618Z,19.38
2023-03-08T13:20:51.007Z,14.98
2023-03-08T13:24:22.472Z,15.98
2023-03-08T13:27:46.652Z,18.25
2023-03-08T13:30:58.502Z,17.45
2023-03-08T13:34:00.765Z,17.05
2023-03-08T13:37:03.045Z,15.43
2023-03-08T13:40:15.321Z,18.95
2023-03-08T13:43:18.601Z,15.48
2023-03-08T13:46:21.394Z,16.20
2023-03-08T13:49:28.266Z,15.90
2023-03-08T13:52:33.045Z,14.73
2023-03-08T13:55:39.411Z,14.98
2023-03-08T13:58:47.517Z,16.02
2023-03-08T14:01:51.511Z,14.40
2023-03-08T14:04:54.205Z,17.63
2023-03-08T14:08:06.278Z,17.83
2023-03-08T14:11:19.860Z,17.40
2023-03-08T14:14:29.752Z,13.07
2023-03-08T14:17:35.294Z,16.38
2023-03-08T14:20:37.596Z,15.02
2023-03-08T14:23:43.109Z,14.95
2023-03-08T14:27:00.520Z,12.77
2023-03-08T14:30:21.773Z,14.40
2023-03-08T14:33:40.293Z,16.83
2023-03-08T14:37:23.134Z,13.25
2023-03-08T14:40:38.183Z,14.15
2023-03-08T14:43:40.336Z,14.73
2023-03-08T14:46:44.975Z,14.95
2023-03-08T14:49:56.685Z,18.00
2023-03-08T14:53:01.672Z,17.42
2023-03-08T14:56:15.162Z,15.10
2023-03-08T14:59:26.975Z,15.27
2023-03-08T15:02:30.118Z,16.25
2023-03-08T15:05:33.733Z,16.58
2023-03-08T15:08:36.030Z,16.23
2023-03-08T15:11:38.496Z,16.00
2023-03-08T15:14:40.674Z,13.57
2023-03-08T15:17:43.380Z,15.20
2023-03-08T15:20:49.522Z,17.92
2023-03-08T15:23:52.652Z,11.93
2023-03-08T15:26:55.956Z,15.82
2023-03-08T15:29:58.114Z,17.52
2023-03-08T15:33:01.378Z,15.82
2023-03-08T15:36:04.007Z,14.18
2023-03-08T15:39:06.330Z,14.57
2023-03-08T15:42:08.575Z,16.17
2023-03-08T15:45:12.310Z,16.63
2023-03-08T15:48:16.525Z,13.75
2023-03-08T15:51:20.532Z,17.05
2023-03-08T15:54:22.771Z,18.48
2023-03-08T15:57:25.014Z,13.10
2023-03-08T16:00:27.866Z,16.90
2023-03-08T16:03:31.529Z,13.52
2023-03-08T16:06:33.747Z,17.20
2023-03-08T16:09:36.011Z,13.70
2023-03-08T16:12:38.206Z,15.75
2023-03-08T16:15:41.590Z,18.42
2023-03-08T16:18:47.102Z,14.20
2023-03-08T16:21:50.942Z,17.20
2023-03-08T16:24:53.624Z,18.63
2023-03-08T16:27:56.092Z,17.02
2023-03-08T16:30:59.220Z,16.70
2023-03-08T16:34:03.623Z,19.77
2023-03-08T16:37:06.000Z,15.55
2023-03-08T16:40:09.290Z,14.98
2023-03-08T16:43:12.384Z,13.00
2023-03-08T16:46:20.052Z,15.13
2023-03-08T16:49:28.254Z,14.75
2023-03-08T16:52:30.568Z,11.50
2023-03-08T16:55:36.472Z,15.52
2023-03-08T16:58:38.565Z,11.75
2023-03-08T17:01:42.608Z,13.13
2023-03-08T17:04:45.507Z,14.63
2023-03-08T17:07:47.698Z,15.88
2023-03-08T17:10:50.003Z,12.13
2023-03-08T17:13:55.617Z,11.88
2023-03-08T17:16:58.088Z,12.15
2023-03-08T17:20:00.919Z,11.57
2023-03-08T17:23:03.243Z,12.38
2023-03-08T17:26:07.383Z,13.05
2023-03-08T17:29:10.562Z,15.20
2023-03-08T17:32:12.824Z,16.33
2023-03-08T17:35:15.489Z,13.63
2023-03-08T17:38:17.599Z,15.18
2023-03-08T17:41:21.217Z,15.23
2023-03-08T17:44:23.313Z,14.27
2023-03-08T17:47:25.575Z,12.70
2023-03-08T17:50:29.950Z,9.50
2023-03-08T17:53:33.157Z,15.70
2023-03-08T17:56:36.640Z,13.68
2023-03-08T17:59:38.879Z,12.27
2023-03-08T18:02:41.160Z,14.25
2023-03-08T18:05:52.212Z,14.85
2023-03-08T18:08:54.929Z,11.32
2023-03-08T18:11:57.100Z,10.48
2023-03-08T18:15:01.415Z,10.80
2023-03-08T18:18:03.642Z,11.38
2023-03-08T18:21:13.377Z,9.60
2023-03-08T18:24:16.337Z,13.00
2023-03-08T18:27:18.482Z,11.27
2023-03-08T18:30:20.699Z,11.10
2023-03-08T18:33:22.909Z,12.07
2023-03-08T18:36:25.087Z,13.23
2023-03-08T18:39:27.364Z,10.95
2023-03-08T18:42:30.224Z,12.65
2023-03-08T18:45:32.788Z,11.52
2023-03-08T18:48:35.004Z,12.38
2023-03-08T18:51:39.532Z,12.20
2023-03-08T18:54:41.810Z,11.52
2023-03-08T18:57:43.962Z,10.65
2023-03-08T19:00:46.237Z,12.98
2023-03-08T19:03:48.683Z,12.35
2023-03-08T19:06:51.101Z,12.60
2023-03-08T19:09:55.036Z,9.85
2023-03-08T19:12:57.183Z,13.68
2023-03-08T19:15:59.419Z,12.80
2023-03-08T19:19:05.507Z,14.18
2023-03-08T19:22:07.990Z,13.13
2023-03-08T19:25:10.322Z,14.88
2023-03-08T19:28:12.514Z,12.55
2023-03-08T19:31:18.329Z,18.10
2023-03-08T19:34:22.977Z,15.02
2023-03-08T19:37:26.005Z,12.77
2023-03-08T19:40:28.191Z,13.65
2023-03-08T19:43:30.307Z,16.35
2023-03-08T19:46:35.643Z,14.40
2023-03-08T19:49:38.833Z,13.60
2023-03-08T19:52:41.117Z,15.30
2023-03-08T19:55:50.970Z,16.10
2023-03-08T19:58:57.004Z,16.17
2023-03-08T20:01:59.421Z,16.55
2023-03-08T20:05:02.207Z,15.73
2023-03-08T20:08:04.519Z,18.80
2023-03-08T20:11:06.836Z,16.10
2023-03-08T20:14:09.126Z,14.05
2023-03-08T20:17:11.340Z,14.02
2023-03-08T20:20:14.157Z,14.73
2023-03-08T20:23:17.497Z,13.07
2023-03-08T20:26:19.729Z,14.57
2023-03-08T20:29:22.384Z,12.85
2023-03-08T20:32:24.630Z,16.13
2023-03-08T20:35:26.781Z,13.70
2023-03-08T20:38:29.069Z,15.18
2023-03-08T20:41:31.363Z,14.50
2023-03-08T20:44:33.564Z,16.00
2023-03-08T20:47:35.915Z,13.50
2023-03-08T20:50:38.044Z,12.60
2023-03-08T20:53:41.538Z,12.65
2023-03-08T20:56:44.044Z,13.60
2023-03-08T20:59:46.257Z,14.88
2023-03-08T21:02:48.461Z,14.43
2023-03-08T21:05:50.671Z,12.90
2023-03-08T21:08:53.508Z,15.02
2023-03-08T21:11:55.615Z,15.70
2023-03-08T21:14:58.901Z,14.60
2023-03-08T21:18:01.263Z,14.77
2023-03-08T21:21:03.372Z,13.35
2023-03-08T21:24:25.748Z,15.48
2023-03-08T21:27:28.039Z,14.50
2023-03-08T21:30:30.890Z,12.57
2023-03-08T21:33:33.092Z,13.10
2023-03-08T21:36:37.361Z,15.88
2023-03-08T21:39:39.505Z,16.40
2023-03-08T21:42:41.817Z,15.65
2023-03-08T21:45:44.089Z,14.90
2023-03-08T21:48:46.725Z,17.15
2023-03-08T21:51:50.187Z,13.48
2023-03-08T21:54:52.356Z,14.63
2023-03-08T21:57:54.478Z,13.15
2023-03-08T22:00:56.624Z,15.10
2023-03-08T22:04:00.543Z,16.52
2023-03-08T22:07:03.176Z,13.18
2023-03-08T22:10:06.635Z,15.13
2023-03-08T22:13:08.951Z,15.82
2023-03-08T22:16:11.236Z,14.43
2023-03-08T22:19:13.393Z,16.13
2023-03-08T22:22:15.579Z,13.85
2023-03-08T22:25:17.885Z,14.30
2023-03-08T22:28:21.316Z,13.65
2023-03-08T22:31:25.476Z,14.88
2023-03-08T22:34:27.601Z,16.45
2023-03-08T22:37:29.858Z,15.57
2023-03-08T22:40:32.094Z,16.73
2023-03-08T22:43:34.298Z,14.00
2023-03-08T22:46:36.525Z,15.40
2023-03-08T22:49:38.759Z,16.77
2023-03-08T22:52:40.860Z,14.63
2023-03-08T22:55:48.956Z,15.68
2023-03-08T22:58:52.044Z,15.50
2023-03-08T23:01:54.722Z,15.88
2023-03-08T23:04:58.606Z,14.05
2023-03-08T23:08:00.751Z,14.02
2023-03-08T23:11:02.993Z,16.27
2023-03-08T23:14:06.206Z,18.98
2023-03-08T23:17:08.433Z,15.23
2023-03-08T23:20:12.157Z,14.18
2023-03-08T23:23:14.235Z,16.90
2023-03-08T23:26:20.759Z,16.00
2023-03-08T23:29:22.887Z,14.77
2023-03-08T23:32:25.070Z,15.63
2023-03-08T23:35:27.697Z,17.00
2023-03-08T23:38:29.857Z,14.50
2023-03-08T23:41:32.564Z,17.05
2023-03-08T23:44:34.746Z,14.98
2023-03-08T23:47:37.085Z,16.10
2023-03-08T23:50:39.948Z,16.63
2023-03-08T23:53:42.503Z,16.80
2023-03-08T23:56:44.870Z,17.90
2023-03-08T23:59:47.019Z,16.05
